Time;durP1;ratioP1;P1;durP2;ratioP2;P2;SDS_P1;SDS_P2;PMS_P1;PMS_P2;Temp;Humidity;BMP_temperature;BMP_pressure;BME280_temperature;BME280_humidity;BME280_pressure;Samples;Min_cycle;Max_cycle;Signal;HPM_P1;HPM_P2
2022/05/24 00:02:03;;;;;;;5.20;0.90;;;;;;;10.99;89.48;99667.63;5017298;28;20093;-75
2022/05/24 00:04:29;;;;;;;1.65;0.95;;;;;;;10.95;89.48;99661.88;5018300;28;20037;-76
2022/05/24 00:06:54;;;;;;;1.90;1.00;;;;;;;10.95;89.19;99662.69;5014245;28;20029;-75
2022/05/24 00:09:20;;;;;;;2.03;0.80;;;;;;;10.92;89.19;99659.72;5031402;28;20033;-75
2022/05/24 00:11:45;;;;;;;2.30;0.80;;;;;;;10.90;89.22;99667.56;5037965;28;20703;-75
2022/05/24 00:14:11;;;;;;;0.90;0.70;;;;;;;10.85;89.05;99668.50;5017108;28;20026;-76
2022/05/24 00:16:36;;;;;;;2.72;1.13;;;;;;;10.84;89.27;99657.72;5033335;28;20041;-75
2022/05/24 00:19:02;;;;;;;2.88;1.08;;;;;;;10.80;89.39;99663.06;5001152;28;20034;-76
2022/05/24 00:21:27;;;;;;;1.63;0.80;;;;;;;10.78;89.20;99659.81;5000542;28;20038;-75
2022/05/24 00:23:53;;;;;;;3.10;0.93;;;;;;;10.76;89.11;99661.25;5017131;28;20390;-75
2022/05/24 00:26:28;;;;;;;1.50;0.80;;;;;;;10.74;89.01;99669.91;5015773;28;20038;-75
2022/05/24 00:28:54;;;;;;;2.65;0.85;;;;;;;10.70;89.00;99663.34;5001315;28;20030;-76
2022/05/24 00:31:19;;;;;;;2.25;0.90;;;;;;;10.66;88.92;99662.31;5000510;28;20045;-76
2022/05/24 00:33:45;;;;;;;1.55;0.90;;;;;;;10.61;89.28;99662.44;5014268;28;20029;-75
2022/05/24 00:36:10;;;;;;;2.38;0.95;;;;;;;10.58;89.23;99666.66;5003751;28;20029;-76
2022/05/24 00:38:36;;;;;;;2.25;0.90;;;;;;;10.57;89.13;99665.03;4987370;28;20120;-75
2022/05/24 00:41:26;;;;;;;1.95;0.90;;;;;;;10.51;89.02;99658.78;5000295;28;20034;-76
2022/05/24 00:44:06;;;;;;;1.45;1.10;;;;;;;10.51;89.46;99671.84;5049971;28;20040;-75
2022/05/24 00:46:47;;;;;;;2.17;0.85;;;;;;;10.46;89.43;99671.97;5036857;28;20022;-75
2022/05/24 00:49:37;;;;;;;3.50;0.88;;;;;;;10.42;89.34;99676.47;5017176;28;20080;-75
2022/05/24 00:52:30;;;;;;;4.50;1.23;;;;;;;10.36;89.62;99675.78;5004764;28;20029;-75
2022/05/24 00:54:56;;;;;;;2.67;0.90;;;;;;;10.33;89.46;99676.41;5021070;28;20037;-75
2022/05/24 00:57:35;;;;;;;1.88;0.93;;;;;;;10.30;89.35;99671.50;5016497;28;20092;-75
2022/05/24 01:00:12;;;;;;;1.50;1.05;;;;;;;10.30;89.25;99677.03;5033557;28;20034;-75
2022/05/24 01:02:38;;;;;;;3.33;1.05;;;;;;;10.25;89.26;99675.19;5020246;28;20083;-76
2022/05/24 01:05:05;;;;;;;2.45;0.90;;;;;;;10.21;89.29;99673.34;5037357;28;20494;-75
2022/05/24 01:07:31;;;;;;;1.60;0.90;;;;;;;10.15;89.64;99671.81;5016122;28;20482;-75
2022/05/24 01:10:07;;;;;;;4.22;1.00;;;;;;;10.17;89.58;99675.09;5032437;28;20053;-75
2022/05/24 01:12:41;;;;;;;1.98;0.95;;;;;;;10.09;89.85;99678.63;5032180;28;20050;-76
2022/05/24 01:15:07;;;;;;;3.83;0.88;;;;;;;10.09;89.59;99670.28;5023191;28;20030;-75
2022/05/24 01:17:33;;;;;;;2.88;0.95;;;;;;;10.06;89.60;99675.31;5035704;28;20107;-75
2022/05/24 01:19:59;;;;;;;4.60;0.90;;;;;;;10.05;89.45;99672.84;5035866;28;20474;-76
2022/05/24 01:22:43;;;;;;;3.05;0.90;;;;;;;10.00;89.49;99671.03;5000216;28;20052;-75
2022/05/24 01:25:20;;;;;;;2.70;0.90;;;;;;;9.96;89.44;99678.31;5016586;28;20486;-76
2022/05/24 01:27:45;;;;;;;2.95;1.00;;;;;;;9.98;89.36;99676.06;5003316;28;20075;-75
2022/05/24 01:30:11;;;;;;;3.05;0.80;;;;;;;9.90;89.43;99668.47;4986759;28;20469;-75
2022/05/24 01:38:05;;;;;;;2.67;1.20;;;;;;;9.81;89.68;99670.34;5036621;28;20028;-75
2022/05/24 01:40:31;;;;;;;1.75;0.63;;;;;;;9.78;89.63;99670.94;5035221;28;20041;-75
2022/05/24 01:42:56;;;;;;;0.95;0.73;;;;;;;9.76;89.82;99675.97;5035400;28;20030;-75
2022/05/24 01:45:30;;;;;;;2.47;0.82;;;;;;;9.72;89.72;99675.78;5001468;28;20030;-75
2022/05/24 01:47:58;;;;;;;2.30;0.60;;;;;;;9.68;90.11;99671.97;5034673;28;20049;-75
2022/05/24 01:50:24;;;;;;;1.90;0.70;;;;;;;9.67;90.06;99672.25;5016026;28;20026;-76
2022/05/24 01:52:53;;;;;;;1.92;1.23;;;;;;;9.67;89.67;99673.09;5002412;28;20025;-76
2022/05/24 01:55:44;;;;;;;5.82;0.70;;;;;;;9.62;89.59;99673.22;4986265;28;20037;-75
2022/05/24 01:58:12;;;;;;;2.70;0.80;;;;;;;9.62;89.72;99676.78;5030293;28;20037;-75
2022/05/24 02:00:38;;;;;;;1.35;1.00;;;;;;;9.59;89.62;99673.81;5017239;28;20064;-76
2022/05/24 02:03:04;;;;;;;2.75;0.90;;;;;;;9.57;89.50;99676.06;5010438;28;20025;-76
2022/05/24 02:05:34;;;;;;;1.77;0.70;;;;;;;9.54;89.84;99682.25;5011672;28;20112;-76
2022/05/24 02:08:00;;;;;;;1.95;0.80;;;;;;;9.51;89.79;99683.66;5045686;28;20033;-75
2022/05/24 02:10:26;;;;;;;2.30;0.88;;;;;;;9.50;89.61;99687.59;5010890;28;20040;-75
2022/05/24 02:12:54;;;;;;;3.50;1.17;;;;;;;9.44;89.90;99685.19;5013118;28;20502;-76
2022/05/24 02:15:24;;;;;;;2.05;0.70;;;;;;;9.44;89.55;99682.44;5015465;28;20115;-76
2022/05/24 02:18:03;;;;;;;1.65;0.80;;;;;;;9.39;89.78;99681.41;4998567;28;20430;-76
2022/05/24 02:20:31;;;;;;;2.88;0.60;;;;;;;9.37;89.83;99682.84;5043297;28;20457;-75
2022/05/24 02:22:57;;;;;;;2.50;0.90;;;;;;;9.37;89.64;99683.66;5015326;28;20563;-75
2022/05/24 02:25:42;;;;;;;2.60;0.70;;;;;;;9.34;89.74;99677.91;5010551;28;20025;-75
2022/05/24 02:28:09;;;;;;;3.35;0.70;;;;;;;9.31;89.62;99682.13;5018393;28;20021;-76
2022/05/24 02:30:37;;;;;;;2.08;0.80;;;;;;;9.28;89.76;99679.16;4986159;28;20026;-76
2022/05/24 02:33:03;;;;;;;2.03;0.65;;;;;;;9.29;89.69;99689.09;4986043;28;20032;-76
2022/05/24 02:35:28;;;;;;;1.67;0.73;;;;;;;9.28;89.93;99690.22;5001766;28;20417;-75
2022/05/24 02:37:54;;;;;;;1.50;0.82;;;;;;;9.27;89.78;99685.78;5034772;28;20030;-75
2022/05/24 02:43:03;;;;;;;3.97;1.00;;;;;;;9.23;89.86;99691.13;5040104;28;20105;-76
2022/05/24 02:45:29;;;;;;;4.40;0.80;;;;;;;9.21;89.75;99684.25;4998599;28;20512;-75
2022/05/24 02:47:54;;;;;;;1.27;0.70;;;;;;;9.17;89.91;99692.34;5014832;28;20022;-76
2022/05/24 02:50:21;;;;;;;1.88;0.95;;;;;;;9.17;90.01;99698.72;5017119;28;20021;-75
2022/05/24 02:52:47;;;;;;;3.13;0.70;;;;;;;9.18;89.82;99694.00;5002625;28;20068;-76
2022/05/24 02:55:13;;;;;;;3.65;0.82;;;;;;;9.14;89.59;99699.31;5036166;28;20025;-75
2022/05/24 02:57:39;;;;;;;3.80;0.90;;;;;;;9.11;89.79;99705.47;5018637;28;20025;-76
2022/05/24 03:00:14;;;;;;;3.00;1.00;;;;;;;9.11;89.51;99699.94;5037198;28;20032;-75
2022/05/24 03:02:39;;;;;;;3.58;0.60;;;;;;;9.10;89.74;99705.78;5036184;28;20038;-75
2022/05/24 03:05:07;;;;;;;2.20;0.80;;;;;;;9.07;89.58;99704.44;5038370;28;20108;-76
2022/05/24 03:10:17;;;;;;;2.28;0.90;;;;;;;9.03;89.61;99719.22;5009650;28;20061;-75
2022/05/24 03:15:29;;;;;;;1.42;0.80;;;;;;;9.01;89.75;99724.22;5013474;28;20599;-75
2022/05/24 03:17:54;;;;;;;2.90;0.90;;;;;;;8.99;89.70;99723.69;5037640;28;20021;-76
2022/05/24 03:20:20;;;;;;;2.90;0.70;;;;;;;8.93;89.67;99717.41;5004966;28;20025;-75
2022/05/24 03:22:46;;;;;;;4.22;0.80;;;;;;;8.92;89.91;99721.31;5005318;28;20052;-75
2022/05/24 03:25:12;;;;;;;2.35;0.80;;;;;;;8.88;89.94;99720.25;5037967;28;20025;-75
2022/05/24 03:27:37;;;;;;;0.65;0.52;;;;;;;8.86;89.68;99723.34;5037722;28;20478;-75
2022/05/24 03:30:03;;;;;;;2.45;0.70;;;;;;;8.85;89.74;99724.44;5037839;28;20025;-76
2022/05/24 03:32:28;;;;;;;3.47;0.60;;;;;;;8.85;89.89;99723.63;5017754;28;20034;-76
2022/05/24 03:34:54;;;;;;;3.10;0.60;;;;;;;8.81;90.01;99717.06;5001546;28;20030;-76
2022/05/24 03:37:19;;;;;;;1.65;0.88;;;;;;;8.81;89.75;99730.91;5034926;28;20021;-76
2022/05/24 03:39:45;;;;;;;1.65;0.70;;;;;;;8.73;89.97;99730.47;5027585;28;20026;-75
2022/05/24 03:42:10;;;;;;;2.95;0.77;;;;;;;8.78;89.96;99737.88;5036890;28;20025;-76
2022/05/24 03:44:36;;;;;;;1.60;0.90;;;;;;;8.76;89.87;99736.53;5001761;28;20104;-76
2022/05/24 03:47:02;;;;;;;2.40;0.85;;;;;;;8.70;89.92;99730.25;5020695;28;20029;-76
2022/05/24 03:49:27;;;;;;;4.85;0.75;;;;;;;8.68;89.96;99730.53;5001321;28;20030;-76
2022/05/24 03:51:53;;;;;;;3.30;1.02;;;;;;;8.69;89.89;99742.44;5004620;28;20021;-76
2022/05/24 03:54:18;;;;;;;2.83;0.77;;;;;;;8.67;90.08;99739.97;5004818;28;20025;-75
2022/05/24 03:58:00;;;;;;;4.22;0.90;;;;;;;8.66;90.12;99734.72;5004089;28;20060;-76
2022/05/24 03:59:30;;;;;;;4.75;0.68;;;;;;;8.61;90.07;99749.50;5009823;28;20448;-76
2022/05/24 04:01:56;;;;;;;3.22;0.85;;;;;;;8.59;90.31;99748.94;5000065;28;20489;-76
2022/05/24 04:04:22;;;;;;;5.07;0.80;;;;;;;8.61;90.11;99748.63;5008373;28;20045;-75
2022/05/24 04:06:47;;;;;;;2.35;0.70;;;;;;;8.56;90.44;99752.31;5036002;28;20036;-75
2022/05/24 04:09:13;;;;;;;2.75;0.75;;;;;;;8.57;90.34;99742.88;5000979;28;20483;-76
2022/05/24 04:11:38;;;;;;;1.33;0.60;;;;;;;8.54;90.10;99749.03;5016950;28;20475;-75
2022/05/24 04:14:04;;;;;;;2.15;0.73;;;;;;;8.55;90.17;99745.13;5036988;28;20105;-75
2022/05/24 04:16:30;;;;;;;3.40;0.60;;;;;;;8.54;90.40;99745.44;5036563;28;20029;-75
2022/05/24 04:18:55;;;;;;;2.60;0.70;;;;;;;8.51;90.27;99744.09;5038263;28;20144;-76
2022/05/24 04:21:20;;;;;;;2.00;0.77;;;;;;;8.53;90.26;99747.38;5020213;28;20025;-76
2022/05/24 04:23:46;;;;;;;3.58;0.70;;;;;;;8.49;90.70;99749.09;5020641;28;20079;-76
2022/05/24 04:26:11;;;;;;;2.08;0.80;;;;;;;8.48;90.39;99753.00;4987505;28;20036;-76
2022/05/24 04:28:37;;;;;;;1.92;0.63;;;;;;;8.45;90.67;99748.06;5036694;28;20525;-75
2022/05/24 04:31:04;;;;;;;0.95;0.65;;;;;;;8.49;90.56;99751.84;5037585;28;20034;-75
2022/05/24 04:33:29;;;;;;;3.08;0.80;;;;;;;8.49;90.83;99754.63;5004146;28;20099;-76
2022/05/24 04:35:56;;;;;;;3.65;1.00;;;;;;;8.50;91.13;99754.34;5020032;28;20029;-75
2022/05/24 04:38:22;;;;;;;3.60;0.88;;;;;;;8.48;91.28;99755.75;5000496;28;20100;-75
2022/05/24 04:43:32;;;;;;;1.65;0.80;;;;;;;8.53;92.41;99758.47;5022576;28;20056;-75
2022/05/24 04:45:57;;;;;;;4.35;0.82;;;;;;;8.55;92.28;99758.97;5036113;28;20482;-75
2022/05/24 04:48:23;;;;;;;1.48;1.00;;;;;;;8.62;93.50;99764.97;5019639;28;20052;-75
2022/05/24 04:50:52;;;;;;;2.85;0.90;;;;;;;8.65;94.92;99767.13;5012288;28;20029;-75
2022/05/24 04:53:18;;;;;;;4.45;0.90;;;;;;;8.73;95.37;99765.63;5017748;28;20073;-75
2022/05/24 04:55:44;;;;;;;3.90;0.90;;;;;;;8.80;97.21;99768.00;5000079;28;20080;-75
2022/05/24 04:58:11;;;;;;;3.97;0.85;;;;;;;8.89;96.96;99764.28;5017672;28;20018;-75
2022/05/24 05:00:38;;;;;;;1.55;0.90;;;;;;;9.01;98.05;99763.81;5019899;28;20486;-75
2022/05/24 05:03:11;;;;;;;2.03;0.82;;;;;;;9.13;98.18;99758.59;4985044;28;20026;-76
2022/05/24 05:05:36;;;;;;;;;;;;;;;9.27;100.00;99763.38;5020632;28;20036;-75
2022/05/24 05:08:02;;;;;;;3.15;0.80;;;;;;;9.40;98.24;99765.38;5052277;28;19913;-76
2022/05/24 05:10:27;;;;;;;5.53;0.93;;;;;;;9.54;98.59;99769.00;5003229;28;20044;-75
2022/05/24 05:12:53;;;;;;;1.77;0.70;;;;;;;9.71;96.41;99764.81;4986187;28;20045;-75
2022/05/24 05:15:18;;;;;;;3.38;1.27;;;;;;;9.86;97.33;99770.03;5003257;28;20025;-75
2022/05/24 05:17:44;;;;;;;3.83;0.80;;;;;;;10.00;93.50;99768.13;5006057;28;20470;-75
2022/05/24 05:20:10;;;;;;;2.25;0.70;;;;;;;10.14;91.56;99767.25;4999571;28;20034;-75
2022/05/24 05:22:37;;;;;;;1.35;0.80;;;;;;;10.31;92.47;99763.88;5048212;28;20025;-76
2022/05/24 05:25:02;;;;;;;2.42;0.60;;;;;;;10.45;90.49;99765.53;5019563;28;20033;-71
2022/05/24 05:27:28;;;;;;;3.33;0.65;;;;;;;10.62;89.98;99770.44;5036765;28;20025;-76
2022/05/24 05:32:38;;;;;;;2.38;0.80;;;;;;;10.96;89.58;99771.88;5033268;28;20025;-76
2022/05/24 05:35:04;;;;;;;2.40;0.60;;;;;;;11.13;89.19;99773.94;5008100;28;20033;-76
2022/05/24 05:37:30;;;;;;;2.35;0.60;;;;;;;11.30;88.68;99776.84;5061733;28;20026;-76
2022/05/24 05:39:56;;;;;;;2.03;0.52;;;;;;;11.45;88.17;99777.59;5028309;28;20029;-76
2022/05/24 05:42:21;;;;;;;1.90;0.73;;;;;;;11.61;87.61;99790.78;5030768;28;20106;-78
2022/05/24 05:44:50;;;;;;;4.57;0.70;;;;;;;11.79;86.69;99793.66;5024351;28;20034;-76
2022/05/24 05:47:16;;;;;;;2.10;0.50;;;;;;;11.96;86.33;99782.63;5015323;28;20026;-76
2022/05/24 05:49:42;;;;;;;3.55;0.80;;;;;;;12.13;85.99;99793.03;5028356;28;20029;-77
2022/05/24 05:52:07;;;;;;;3.97;0.75;;;;;;;12.30;85.65;99795.84;5009667;28;20026;-76
2022/05/24 05:54:33;;;;;;;3.60;0.60;;;;;;;12.48;85.24;99790.31;5035149;28;20394;-76
2022/05/24 05:57:02;;;;;;;3.40;0.88;;;;;;;12.63;85.10;99798.22;5035172;28;20033;-76
2022/05/24 05:59:30;;;;;;;3.60;0.63;;;;;;;12.81;84.09;99801.03;5034891;28;20040;-76
2022/05/24 06:01:58;;;;;;;3.55;0.80;;;;;;;12.97;84.03;99804.97;5028944;28;20127;-76
2022/05/24 06:04:23;;;;;;;3.58;0.77;;;;;;;13.12;83.51;99804.50;5047969;28;20050;-77
2022/05/24 06:06:49;;;;;;;2.92;0.60;;;;;;;13.27;83.10;99800.44;5031922;28;20109;-76
2022/05/24 06:09:14;;;;;;;2.63;0.70;;;;;;;13.43;82.46;99800.75;5031723;28;20034;-76
2022/05/24 06:11:41;;;;;;;4.07;0.73;;;;;;;13.56;82.27;99805.28;5048067;28;20076;-76
2022/05/24 06:14:07;;;;;;;5.10;1.02;;;;;;;13.74;81.30;99802.47;5027641;28;20025;-76
2022/05/24 06:16:33;;;;;;;4.10;0.80;;;;;;;13.89;81.54;99813.09;4998781;28;20463;-75
2022/05/24 06:18:59;;;;;;;1.73;0.65;;;;;;;14.05;81.08;99808.59;5048275;28;20028;-75
2022/05/24 06:21:24;;;;;;;6.20;0.80;;;;;;;14.19;81.67;99813.97;5015050;28;20029;-76
2022/05/24 06:23:49;;;;;;;5.57;0.80;;;;;;;14.32;81.00;99820.50;5015289;28;20389;-76
2022/05/24 06:26:18;;;;;;;4.60;0.80;;;;;;;14.42;80.43;99814.50;5037476;28;20033;-70
2022/05/24 06:28:44;;;;;;;4.35;0.90;;;;;;;14.55;80.27;99820.25;5038813;28;20478;-71
2022/05/24 06:31:09;;;;;;;4.97;1.20;;;;;;;14.68;79.36;99810.78;5038222;28;20060;-71
2022/05/24 06:33:35;;;;;;;3.92;0.60;;;;;;;14.77;78.79;99814.34;5010026;28;20034;-70
2022/05/24 06:36:00;;;;;;;7.35;1.35;;;;;;;14.96;81.12;99819.47;5038166;28;20033;-71
2022/05/24 06:38:26;;;;;;;5.80;1.00;;;;;;;15.06;79.87;99819.06;5022301;28;20034;-71
2022/05/24 06:40:51;;;;;;;3.60;0.65;;;;;;;15.24;78.58;99825.34;5038610;28;20394;-71
2022/05/24 06:43:17;;;;;;;4.47;0.88;;;;;;;15.37;77.63;99821.41;5038861;28;20034;-71
2022/05/24 06:45:42;;;;;;;4.70;0.90;;;;;;;15.53;77.64;99832.81;5002636;28;20030;-71
2022/05/24 06:48:11;;;;;;;3.00;0.70;;;;;;;15.72;76.83;99832.31;5005573;28;20030;-71
2022/05/24 06:50:38;;;;;;;5.22;0.80;;;;;;;15.83;76.67;99833.53;5018914;28;20034;-71
2022/05/24 06:53:04;;;;;;;5.43;0.80;;;;;;;16.07;76.00;99837.53;5002202;28;20022;-73
2022/05/24 06:55:29;;;;;;;4.50;1.10;;;;;;;16.21;75.71;99840.81;5038026;28;20078;-73
2022/05/24 06:57:55;;;;;;;3.58;0.63;;;;;;;16.35;75.67;99837.69;5038521;28;20029;-73
2022/05/24 07:03:08;;;;;;;6.22;1.35;;;;;;;16.70;74.91;99840.03;5036179;28;20156;-74
2022/05/24 07:05:34;;;;;;;5.70;0.98;;;;;;;16.91;74.10;99843.56;5032184;28;20041;-71
2022/05/24 07:08:01;;;;;;;7.50;1.13;;;;;;;17.03;73.88;99845.50;5017220;28;20025;-71
2022/05/24 07:10:27;;;;;;;5.90;0.98;;;;;;;17.23;73.51;99842.88;5002457;28;20044;-75
2022/05/24 07:13:04;;;;;;;8.15;1.10;;;;;;;17.38;74.66;99851.38;5037185;28;20050;-74
2022/05/24 07:15:30;;;;;;;4.72;0.90;;;;;;;17.49;73.08;99854.47;4988039;28;20396;-75
2022/05/24 07:17:56;;;;;;;7.47;0.95;;;;;;;17.59;73.86;99851.19;5034757;28;20025;-75
2022/05/24 07:20:22;;;;;;;7.25;1.33;;;;;;;17.78;72.76;99858.13;5040491;28;20100;-73
2022/05/24 07:22:48;;;;;;;6.47;1.05;;;;;;;17.86;73.10;99866.41;5037751;28;20029;-71
2022/05/24 07:25:15;;;;;;;6.82;1.25;;;;;;;17.96;73.44;99859.44;5038398;28;20041;-72
2022/05/24 07:27:40;;;;;;;9.73;1.25;;;;;;;18.11;72.45;99859.81;5037826;28;20052;-72
2022/05/24 07:30:06;;;;;;;10.20;1.10;;;;;;;18.27;71.82;99857.84;5028229;28;20034;-72
2022/05/24 07:32:32;;;;;;;5.72;1.00;;;;;;;18.42;71.23;99854.25;5035401;28;20029;-72
2022/05/24 07:34:59;;;;;;;6.10;1.23;;;;;;;18.54;71.06;99856.13;5020669;28;20478;-72
2022/05/24 07:37:24;;;;;;;13.30;1.25;;;;;;;18.68;71.35;99862.09;5021160;28;20044;-71
2022/05/24 07:45:47;;;;;;;10.50;1.23;;;;;;;18.80;71.49;99855.59;5004784;28;20096;-71
2022/05/24 07:48:04;;;;;;;3.65;1.00;;;;;;;19.26;68.84;99858.66;5044280;28;20068;-71
2022/05/24 07:50:29;;;;;;;8.13;0.80;;;;;;;19.45;68.28;99860.69;5035405;28;20030;-72
2022/05/24 07:52:55;;;;;;;6.82;0.80;;;;;;;19.62;68.23;99867.88;5037416;28;20037;-72
2022/05/24 07:55:20;;;;;;;5.50;0.80;;;;;;;19.74;67.44;99861.28;5037082;28;20033;-71
2022/05/24 07:57:46;;;;;;;5.72;0.82;;;;;;;19.88;67.12;99861.56;5001102;28;20037;-71
2022/05/24 08:00:12;;;;;;;6.47;0.90;;;;;;;20.03;66.65;99866.31;5017000;28;20032;-72
2022/05/24 08:02:38;;;;;;;7.70;1.02;;;;;;;20.15;65.17;99859.66;5035957;28;20088;-71
2022/05/24 08:05:05;;;;;;;5.28;0.85;;;;;;;20.24;65.00;99857.41;5020596;28;20557;-71
2022/05/24 08:07:31;;;;;;;4.55;0.95;;;;;;;20.33;65.02;99862.00;5020674;28;20052;-71
2022/05/24 08:09:57;;;;;;;4.35;0.77;;;;;;;20.43;65.23;99864.19;5000997;28;20108;-71
2022/05/24 08:12:22;;;;;;;5.88;0.73;;;;;;;20.57;64.98;99853.19;5017079;28;20116;-71
2022/05/24 08:14:48;;;;;;;6.13;0.68;;;;;;;20.63;63.96;99868.59;5031927;28;20393;-71
2022/05/24 08:17:13;;;;;;;5.05;0.65;;;;;;;20.74;62.87;99863.13;5036705;28;20522;-71
2022/05/24 08:19:39;;;;;;;6.00;0.70;;;;;;;20.77;64.27;99865.19;5020376;28;20053;-71
2022/05/24 08:22:05;;;;;;;5.00;0.80;;;;;;;20.84;64.13;99861.66;5038129;28;20029;-72
2022/05/24 08:24:30;;;;;;;6.07;0.95;;;;;;;20.92;62.23;99863.38;5002265;28;20474;-71
2022/05/24 08:26:56;;;;;;;4.13;0.73;;;;;;;21.03;62.46;99870.00;5029744;28;20040;-72
2022/05/24 08:29:22;;;;;;;8.80;0.80;;;;;;;21.07;62.27;99868.06;5036613;28;20064;-72
2022/05/24 08:31:47;;;;;;;5.68;0.90;;;;;;;21.14;61.50;99868.16;5036535;28;20029;-71
2022/05/24 08:34:14;;;;;;;3.38;0.57;;;;;;;21.27;61.79;99865.94;5000342;28;20038;-72
2022/05/24 08:36:39;;;;;;;4.63;0.57;;;;;;;21.37;61.93;99862.47;5028260;28;20033;-73
2022/05/24 08:39:05;;;;;;;5.70;1.10;;;;;;;21.51;60.56;99866.69;5000779;28;20030;-72
2022/05/24 08:41:56;;;;;;;6.57;0.65;;;;;;;21.64;59.42;99870.88;5010899;28;20038;-71
2022/05/24 08:50:03;;;;;;;;;;;;;;;22.21;58.14;99876.41;5021126;28;20033;-73
2022/05/24 08:52:35;;;;;;;3.60;0.60;;;;;;;22.40;56.97;99867.72;5019927;28;19932;-72
2022/05/24 08:55:00;;;;;;;5.15;0.60;;;;;;;22.60;57.44;99873.16;5015086;28;20429;-72
2022/05/24 08:57:36;;;;;;;2.53;0.70;;;;;;;22.76;56.12;99876.47;5016699;28;20037;-72
2022/05/24 09:00:11;;;;;;;4.88;0.70;;;;;;;22.91;55.65;99874.59;5046530;28;20053;-72
2022/05/24 09:02:37;;;;;;;3.58;0.47;;;;;;;23.14;54.29;99863.03;5010291;28;20431;-72
2022/05/24 09:05:02;;;;;;;4.53;0.82;;;;;;;23.32;54.01;99871.66;5035817;28;20079;-72
2022/05/24 09:07:37;;;;;;;5.43;1.00;;;;;;;23.39;54.27;99877.34;5016343;28;20042;-71
2022/05/24 09:10:08;;;;;;;10.77;1.38;;;;;;;23.32;51.62;99875.31;5035120;28;20041;-71
2022/05/24 09:12:53;;;;;;;3.27;0.70;;;;;;;23.37;51.04;99880.59;5036834;28;20063;-71
2022/05/24 09:15:29;;;;;;;6.13;0.80;;;;;;;23.30;50.04;99880.53;5002915;28;20047;-71
2022/05/24 09:18:14;;;;;;;4.53;0.60;;;;;;;23.36;50.61;99881.78;5032028;28;20496;-71
2022/05/24 09:20:42;;;;;;;3.10;0.50;;;;;;;23.43;50.25;99881.03;5035631;28;20037;-71
2022/05/24 09:23:23;;;;;;;3.88;0.82;;;;;;;23.48;50.92;99880.63;5036029;28;20099;-71
2022/05/24 09:26:00;;;;;;;3.15;0.45;;;;;;;23.62;49.46;99877.06;5036901;28;20081;-71
2022/05/24 09:28:46;;;;;;;6.45;0.70;;;;;;;23.76;48.11;99874.31;5035579;28;20083;-71
2022/05/24 09:31:27;;;;;;;4.80;0.60;;;;;;;23.95;45.88;99869.53;5019525;28;20655;-71
2022/05/24 09:34:16;;;;;;;4.68;0.65;;;;;;;24.04;45.79;99879.28;5034175;28;20041;-71
2022/05/24 09:36:53;;;;;;;4.15;0.60;;;;;;;24.24;45.90;99871.22;5008935;28;20075;-71
2022/05/24 09:39:35;;;;;;;3.42;0.50;;;;;;;24.43;45.73;99872.03;5031643;28;20034;-71
2022/05/24 09:42:01;;;;;;;3.50;0.40;;;;;;;24.51;45.52;99871.66;5035396;28;20033;-71
2022/05/24 09:44:28;;;;;;;3.03;0.60;;;;;;;24.73;44.64;99871.69;5035498;28;20039;-71
2022/05/24 09:46:54;;;;;;;2.42;0.57;;;;;;;24.82;43.62;99871.25;5019101;28;20037;-71
2022/05/24 09:49:32;;;;;;;4.53;0.60;;;;;;;24.94;45.20;99877.34;5018684;28;20044;-71
2022/05/24 09:52:07;;;;;;;3.42;0.50;;;;;;;25.04;45.99;99869.22;5018134;28;20041;-71
2022/05/24 09:54:33;;;;;;;6.32;0.50;;;;;;;25.24;44.98;99869.59;5019009;28;20500;-71
2022/05/24 09:57:04;;;;;;;2.20;0.40;;;;;;;25.41;44.44;99872.41;5036374;28;20498;-71
2022/05/24 09:59:30;;;;;;;3.92;0.80;;;;;;;25.54;42.82;99878.44;5036232;28;20026;-71
2022/05/24 10:01:55;;;;;;;1.90;0.30;;;;;;;25.72;42.95;99875.56;5018581;28;20037;-72
2022/05/24 10:04:34;;;;;;;4.43;0.50;;;;;;;25.82;42.85;99882.41;5018343;28;20117;-71
2022/05/24 10:07:27;;;;;;;3.40;0.50;;;;;;;25.86;43.75;99880.41;5030895;28;20089;-71
2022/05/24 10:10:12;;;;;;;2.30;0.55;;;;;;;25.85;41.26;99876.75;5031190;28;20041;-71
2022/05/24 10:13:14;;;;;;;3.80;0.30;;;;;;;25.80;40.75;99868.63;5035000;28;20590;-72
2022/05/24 10:15:44;;;;;;;4.35;0.40;;;;;;;25.78;42.11;99873.09;5014646;28;20042;-71
2022/05/24 10:18:26;;;;;;;2.97;0.55;;;;;;;25.73;39.92;99873.50;5031030;28;20022;-71
2022/05/24 10:21:07;;;;;;;3.13;0.65;;;;;;;25.70;40.22;99868.66;5027463;28;20041;-71
2022/05/24 10:23:42;;;;;;;2.72;0.32;;;;;;;25.56;39.95;99861.00;5025194;28;20033;-71
2022/05/24 10:26:33;;;;;;;2.63;0.40;;;;;;;25.55;40.81;99853.69;5028556;28;20068;-71
2022/05/24 10:29:05;;;;;;;2.70;0.40;;;;;;;25.57;40.92;99860.56;5015702;28;20049;-71
2022/05/24 10:31:52;;;;;;;2.17;0.45;;;;;;;25.62;40.60;99850.81;5031902;28;20030;-71
2022/05/24 10:41:02;;;;;;;3.65;0.40;;;;;;;25.60;40.55;99862.63;5047902;28;20030;-71
2022/05/24 10:43:43;;;;;;;3.10;0.30;;;;;;;25.49;41.49;99869.53;5020743;28;20512;-71
2022/05/24 10:46:15;;;;;;;2.03;0.40;;;;;;;25.29;43.62;99874.88;5034428;28;20029;-71
2022/05/24 10:48:48;;;;;;;1.67;0.40;;;;;;;25.08;44.20;99876.53;4998694;28;20084;-71
2022/05/24 10:51:30;;;;;;;3.92;0.40;;;;;;;24.80;44.41;99876.56;4999189;28;20594;-71
2022/05/24 10:53:58;;;;;;;4.63;0.50;;;;;;;24.48;45.61;99868.84;5032584;28;20034;-71
2022/05/24 10:56:29;;;;;;;1.75;0.30;;;;;;;24.19;46.31;99863.09;5033071;28;20050;-71
2022/05/24 10:59:28;;;;;;;1.85;0.60;;;;;;;23.82;47.26;99872.72;5018455;28;20022;-71
2022/05/24 11:01:59;;;;;;;2.85;0.50;;;;;;;23.50;47.48;99866.88;5012760;28;20099;-71
2022/05/24 11:04:50;;;;;;;1.95;0.50;;;;;;;23.29;47.52;99875.25;5015064;28;20033;-71
2022/05/24 11:07:18;;;;;;;2.15;0.80;;;;;;;23.08;47.70;99882.44;5034333;28;20026;-71
2022/05/24 11:09:51;;;;;;;3.30;1.70;;;;;;;22.85;46.25;99882.66;5035566;28;20061;-71
2022/05/24 11:12:19;;;;;;;3.25;1.60;;;;;;;22.81;47.19;99886.66;5037071;28;20061;-71
2022/05/24 11:15:22;;;;;;;4.03;1.35;;;;;;;22.84;46.22;99877.38;5017183;28;20037;-71
2022/05/24 11:17:47;;;;;;;2.20;0.85;;;;;;;22.85;45.55;99876.97;5055558;28;20049;-71
2022/05/24 11:20:13;;;;;;;4.65;0.60;;;;;;;22.95;46.47;99872.59;5036255;28;20032;-71
2022/05/24 11:23:10;;;;;;;3.08;0.75;;;;;;;23.08;46.40;99875.97;5017379;28;20025;-71
2022/05/24 11:25:50;;;;;;;4.45;0.80;;;;;;;23.29;45.53;99867.59;5004856;28;20072;-71
2022/05/24 11:28:32;;;;;;;3.13;0.57;;;;;;;23.53;45.19;99871.75;5022198;28;20041;-71
2022/05/24 11:31:27;;;;;;;3.63;0.47;;;;;;;23.83;45.66;99873.53;5035438;28;20482;-71
2022/05/24 11:33:53;;;;;;;3.63;0.40;;;;;;;24.04;44.51;99872.78;5046940;28;20079;-71
2022/05/24 11:36:33;;;;;;;4.40;0.52;;;;;;;24.23;44.56;99880.13;5037645;28;20037;-71
2022/05/24 11:39:11;;;;;;;4.38;0.50;;;;;;;24.35;45.27;99876.06;5037679;28;20375;-71
2022/05/24 11:41:37;;;;;;;2.75;0.47;;;;;;;24.44;46.39;99876.53;5022384;28;20117;-71
2022/05/24 11:44:08;;;;;;;2.83;0.55;;;;;;;24.39;47.40;99876.91;5021088;28;20040;-71
2022/05/24 11:46:33;;;;;;;3.47;0.50;;;;;;;24.29;48.93;99882.19;5021070;28;20493;-71
2022/05/24 11:48:59;;;;;;;3.97;0.63;;;;;;;24.12;50.16;99885.75;5037344;28;20075;-71
2022/05/24 11:51:29;;;;;;;4.00;0.52;;;;;;;23.94;50.60;99882.88;5021055;28;20029;-71
2022/05/24 11:53:54;;;;;;;1.77;0.50;;;;;;;23.77;51.14;99892.97;5037516;28;20044;-71
2022/05/24 11:56:21;;;;;;;4.50;0.30;;;;;;;23.64;52.17;99900.16;5037053;28;20033;-71
2022/05/24 11:58:48;;;;;;;2.08;0.40;;;;;;;23.52;51.73;99889.97;5014043;28;20033;-71
2022/05/24 12:01:17;;;;;;;2.53;0.40;;;;;;;23.38;50.97;99895.56;5002550;28;20042;-71
2022/05/24 12:10:05;;;;;;;2.58;0.30;;;;;;;23.32;49.93;99889.47;5037334;28;20033;-71
2022/05/24 12:12:35;;;;;;;2.35;0.30;;;;;;;23.39;48.79;99888.69;5020982;28;20053;-71
2022/05/24 12:15:21;;;;;;;2.78;0.40;;;;;;;23.45;47.33;99884.25;5020555;28;20367;-71
2022/05/24 12:17:53;;;;;;;1.20;0.28;;;;;;;23.56;46.46;99878.66;5036517;28;20111;-71
2022/05/24 12:20:33;;;;;;;2.88;0.30;;;;;;;23.61;44.87;99879.09;5001421;28;20030;-71
2022/05/24 12:23:13;;;;;;;3.20;0.50;;;;;;;23.70;44.41;99877.91;5043394;28;20037;-71
2022/05/24 12:25:54;;;;;;;3.83;0.25;;;;;;;23.76;44.01;99882.00;5043185;28;20481;-71
2022/05/24 12:28:22;;;;;;;0.85;0.17;;;;;;;23.79;42.74;99889.69;5017312;28;20105;-71
2022/05/24 12:30:48;;;;;;;1.98;0.30;;;;;;;23.86;43.49;99882.03;5046354;28;20053;-71
2022/05/24 12:33:34;;;;;;;3.45;0.40;;;;;;;23.91;42.88;99885.72;5027562;28;20040;-71
2022/05/24 12:36:05;;;;;;;2.40;0.30;;;;;;;23.92;42.61;99893.00;5036565;28;20091;-71